sensor_id;sensor_type;location;lat;lon;timestamp;P1;durP1;ratioP1;P2;durP2;ratioP2
13171;SDS011;6651;53.200;10.432;2022-07-29T00:01:02;4.38;;;1.90;;
13171;SDS011;6651;53.200;10.432;2022-07-29T00:03:28;2.40;;;1.83;;
13171;SDS011;6651;53.200;10.432;2022-07-29T00:05:54;5.53;;;2.13;;
13171;SDS011;6651;53.200;10.432;2022-07-29T00:08:21;3.60;;;1.88;;
13171;SDS011;6651;53.200;10.432;2022-07-29T00:10:47;4.95;;;2.10;;
13171;SDS011;6651;53.200;10.432;2022-07-29T00:13:13;3.55;;;2.10;;
13171;SDS011;6651;53.200;10.432;2022-07-29T00:15:42;3.88;;;2.10;;
13171;SDS011;6651;53.200;10.432;2022-07-29T00:18:08;4.30;;;2.15;;
13171;SDS011;6651;53.200;10.432;2022-07-29T00:20:34;3.28;;;1.98;;
13171;SDS011;6651;53.200;10.432;2022-07-29T00:23:00;4.43;;;1.90;;
13171;SDS011;6651;53.200;10.432;2022-07-29T00:25:26;3.47;;;1.90;;
13171;SDS011;6651;53.200;10.432;2022-07-29T00:27:52;4.63;;;2.10;;
13171;SDS011;6651;53.200;10.432;2022-07-29T00:30:18;4.65;;;1.90;;
13171;SDS011;6651;53.200;10.432;2022-07-29T00:32:44;3.25;;;2.05;;
13171;SDS011;6651;53.200;10.432;2022-07-29T00:35:10;3.80;;;2.08;;
13171;SDS011;6651;53.200;10.432;2022-07-29T00:37:54;4.32;;;2.13;;
13171;SDS011;6651;53.200;10.432;2022-07-29T00:40:20;3.63;;;2.05;;
13171;SDS011;6651;53.200;10.432;2022-07-29T00:42:47;5.20;;;2.20;;
13171;SDS011;6651;53.200;10.432;2022-07-29T00:45:14;3.70;;;1.92;;
13171;SDS011;6651;53.200;10.432;2022-07-29T00:47:40;4.85;;;2.00;;
13171;SDS011;6651;53.200;10.432;2022-07-29T00:50:07;3.45;;;2.10;;
13171;SDS011;6651;53.200;10.432;2022-07-29T00:52:35;5.63;;;2.08;;
13171;SDS011;6651;53.200;10.432;2022-07-29T00:55:05;2.58;;;2.10;;
13171;SDS011;6651;53.200;10.432;2022-07-29T00:57:31;3.90;;;1.95;;
13171;SDS011;6651;53.200;10.432;2022-07-29T00:59:58;3.75;;;2.10;;
13171;SDS011;6651;53.200;10.432;2022-07-29T01:02:24;4.30;;;2.30;;
13171;SDS011;6651;53.200;10.432;2022-07-29T01:04:50;4.03;;;2.17;;
13171;SDS011;6651;53.200;10.432;2022-07-29T01:07:17;5.03;;;2.40;;
13171;SDS011;6651;53.200;10.432;2022-07-29T01:09:43;2.53;;;2.15;;
13171;SDS011;6651;53.200;10.432;2022-07-29T01:12:10;4.60;;;2.35;;
13171;SDS011;6651;53.200;10.432;2022-07-29T01:14:37;3.15;;;1.90;;
13171;SDS011;6651;53.200;10.432;2022-07-29T01:17:10;3.92;;;2.00;;
13171;SDS011;6651;53.200;10.432;2022-07-29T01:30:00;5.63;;;2.10;;
13171;SDS011;6651;53.200;10.432;2022-07-29T01:32:27;4.15;;;2.05;;
13171;SDS011;6651;53.200;10.432;2022-07-29T01:37:43;2.22;;;1.92;;
13171;SDS011;6651;53.200;10.432;2022-07-29T01:40:12;3.97;;;2.20;;
13171;SDS011;6651;53.200;10.432;2022-07-29T01:42:43;4.15;;;2.08;;
13171;SDS011;6651;53.200;10.432;2022-07-29T01:48:03;2.72;;;1.90;;
13171;SDS011;6651;53.200;10.432;2022-07-29T01:50:34;3.92;;;2.17;;
13171;SDS011;6651;53.200;10.432;2022-07-29T01:53:05;5.95;;;2.40;;
13171;SDS011;6651;53.200;10.432;2022-07-29T01:55:34;4.88;;;2.40;;
13171;SDS011;6651;53.200;10.432;2022-07-29T01:58:00;4.40;;;2.28;;
13171;SDS011;6651;53.200;10.432;2022-07-29T02:00:29;2.90;;;2.20;;
13171;SDS011;6651;53.200;10.432;2022-07-29T02:02:56;4.75;;;2.40;;
13171;SDS011;6651;53.200;10.432;2022-07-29T02:05:24;5.00;;;2.10;;
13171;SDS011;6651;53.200;10.432;2022-07-29T02:07:54;4.32;;;2.53;;
13171;SDS011;6651;53.200;10.432;2022-07-29T02:10:22;4.43;;;2.42;;
13171;SDS011;6651;53.200;10.432;2022-07-29T02:12:49;3.08;;;2.10;;
13171;SDS011;6651;53.200;10.432;2022-07-29T02:15:16;2.50;;;1.98;;
13171;SDS011;6651;53.200;10.432;2022-07-29T02:17:43;4.13;;;2.20;;
13171;SDS011;6651;53.200;10.432;2022-07-29T02:20:11;2.55;;;2.28;;
13171;SDS011;6651;53.200;10.432;2022-07-29T02:22:38;4.47;;;2.50;;
13171;SDS011;6651;53.200;10.432;2022-07-29T02:25:05;3.63;;;2.30;;
13171;SDS011;6651;53.200;10.432;2022-07-29T02:27:32;5.53;;;2.15;;
13171;SDS011;6651;53.200;10.432;2022-07-29T02:29:59;3.72;;;2.30;;
13171;SDS011;6651;53.200;10.432;2022-07-29T02:32:26;4.70;;;2.55;;
13171;SDS011;6651;53.200;10.432;2022-07-29T02:34:53;4.60;;;2.30;;
13171;SDS011;6651;53.200;10.432;2022-07-29T02:37:20;3.95;;;2.10;;
13171;SDS011;6651;53.200;10.432;2022-07-29T02:39:46;4.20;;;2.40;;
13171;SDS011;6651;53.200;10.432;2022-07-29T02:42:16;3.85;;;2.10;;
13171;SDS011;6651;53.200;10.432;2022-07-29T02:44:43;5.05;;;2.20;;
13171;SDS011;6651;53.200;10.432;2022-07-29T02:49:38;7.32;;;2.58;;
13171;SDS011;6651;53.200;10.432;2022-07-29T02:55:02;3.38;;;2.33;;
13171;SDS011;6651;53.200;10.432;2022-07-29T02:58:08;5.15;;;2.50;;
13171;SDS011;6651;53.200;10.432;2022-07-29T03:00:27;4.38;;;2.45;;
13171;SDS011;6651;53.200;10.432;2022-07-29T03:02:55;5.80;;;2.60;;
13171;SDS011;6651;53.200;10.432;2022-07-29T03:05:21;4.75;;;2.33;;
13171;SDS011;6651;53.200;10.432;2022-07-29T03:07:50;4.63;;;2.40;;
13171;SDS011;6651;53.200;10.432;2022-07-29T03:10:17;3.63;;;2.17;;
13171;SDS011;6651;53.200;10.432;2022-07-29T03:12:43;7.68;;;2.40;;
13171;SDS011;6651;53.200;10.432;2022-07-29T03:15:09;6.63;;;2.80;;
13171;SDS011;6651;53.200;10.432;2022-07-29T03:17:36;6.00;;;2.78;;
13171;SDS011;6651;53.200;10.432;2022-07-29T03:20:03;2.75;;;1.92;;
13171;SDS011;6651;53.200;10.432;2022-07-29T03:22:29;2.67;;;2.35;;
13171;SDS011;6651;53.200;10.432;2022-07-29T03:24:55;6.15;;;2.78;;
13171;SDS011;6651;53.200;10.432;2022-07-29T03:27:21;4.15;;;2.40;;
13171;SDS011;6651;53.200;10.432;2022-07-29T03:29:51;4.22;;;2.47;;
13171;SDS011;6651;53.200;10.432;2022-07-29T03:32:17;3.33;;;2.15;;
13171;SDS011;6651;53.200;10.432;2022-07-29T03:34:45;5.18;;;2.50;;
13171;SDS011;6651;53.200;10.432;2022-07-29T03:37:11;3.85;;;2.30;;
13171;SDS011;6651;53.200;10.432;2022-07-29T03:39:38;3.05;;;2.33;;
13171;SDS011;6651;53.200;10.432;2022-07-29T03:42:06;3.15;;;2.30;;
13171;SDS011;6651;53.200;10.432;2022-07-29T03:44:32;4.60;;;2.40;;
13171;SDS011;6651;53.200;10.432;2022-07-29T03:47:00;2.90;;;2.25;;
13171;SDS011;6651;53.200;10.432;2022-07-29T03:49:26;4.18;;;2.35;;
13171;SDS011;6651;53.200;10.432;2022-07-29T03:51:54;3.50;;;2.40;;
13171;SDS011;6651;53.200;10.432;2022-07-29T03:54:20;4.65;;;2.28;;
13171;SDS011;6651;53.200;10.432;2022-07-29T03:56:46;5.63;;;2.60;;
13171;SDS011;6651;53.200;10.432;2022-07-29T03:59:15;4.43;;;2.38;;
13171;SDS011;6651;53.200;10.432;2022-07-29T04:01:42;4.25;;;2.58;;
13171;SDS011;6651;53.200;10.432;2022-07-29T04:04:08;5.30;;;2.17;;
13171;SDS011;6651;53.200;10.432;2022-07-29T04:06:40;5.20;;;2.55;;
13171;SDS011;6651;53.200;10.432;2022-07-29T04:09:06;4.57;;;2.40;;
13171;SDS011;6651;53.200;10.432;2022-07-29T04:11:32;4.43;;;2.50;;
13171;SDS011;6651;53.200;10.432;2022-07-29T04:13:58;5.28;;;2.50;;
13171;SDS011;6651;53.200;10.432;2022-07-29T04:16:23;4.88;;;2.50;;
13171;SDS011;6651;53.200;10.432;2022-07-29T04:18:49;2.85;;;2.15;;
13171;SDS011;6651;53.200;10.432;2022-07-29T04:21:14;3.53;;;2.40;;
13171;SDS011;6651;53.200;10.432;2022-07-29T04:23:40;6.28;;;2.70;;
13171;SDS011;6651;53.200;10.432;2022-07-29T04:26:06;4.43;;;2.67;;
13171;SDS011;6651;53.200;10.432;2022-07-29T04:28:34;4.53;;;2.40;;
13171;SDS011;6651;53.200;10.432;2022-07-29T04:31:04;4.85;;;2.58;;
13171;SDS011;6651;53.200;10.432;2022-07-29T04:33:30;3.45;;;2.20;;
13171;SDS011;6651;53.200;10.432;2022-07-29T04:35:55;4.03;;;2.30;;
13171;SDS011;6651;53.200;10.432;2022-07-29T04:38:21;3.55;;;2.40;;
13171;SDS011;6651;53.200;10.432;2022-07-29T04:40:47;3.65;;;2.40;;
13171;SDS011;6651;53.200;10.432;2022-07-29T04:43:12;4.53;;;2.10;;
13171;SDS011;6651;53.200;10.432;2022-07-29T04:45:39;5.40;;;2.67;;
13171;SDS011;6651;53.200;10.432;2022-07-29T04:48:05;5.60;;;2.40;;
13171;SDS011;6651;53.200;10.432;2022-07-29T04:50:31;4.57;;;2.42;;
13171;SDS011;6651;53.200;10.432;2022-07-29T04:52:56;7.32;;;2.85;;
13171;SDS011;6651;53.200;10.432;2022-07-29T04:55:22;6.50;;;2.55;;
13171;SDS011;6651;53.200;10.432;2022-07-29T04:57:48;4.20;;;2.40;;
13171;SDS011;6651;53.200;10.432;2022-07-29T05:00:13;4.65;;;2.70;;
13171;SDS011;6651;53.200;10.432;2022-07-29T05:02:39;5.68;;;2.88;;
13171;SDS011;6651;53.200;10.432;2022-07-29T05:05:05;5.43;;;2.50;;
13171;SDS011;6651;53.200;10.432;2022-07-29T05:07:32;6.88;;;2.70;;
13171;SDS011;6651;53.200;10.432;2022-07-29T05:09:57;6.57;;;2.55;;
13171;SDS011;6651;53.200;10.432;2022-07-29T05:12:23;5.90;;;2.67;;
13171;SDS011;6651;53.200;10.432;2022-07-29T05:14:49;8.82;;;2.75;;
13171;SDS011;6651;53.200;10.432;2022-07-29T05:17:15;5.80;;;2.38;;
13171;SDS011;6651;53.200;10.432;2022-07-29T05:22:09;4.65;;;2.30;;
13171;SDS011;6651;53.200;10.432;2022-07-29T05:24:34;3.35;;;2.50;;
13171;SDS011;6651;53.200;10.432;2022-07-29T05:27:00;5.60;;;2.40;;
13171;SDS011;6651;53.200;10.432;2022-07-29T05:29:26;6.57;;;2.80;;
13171;SDS011;6651;53.200;10.432;2022-07-29T05:31:51;5.07;;;2.50;;
13171;SDS011;6651;53.200;10.432;2022-07-29T05:34:18;7.97;;;3.20;;
13171;SDS011;6651;53.200;10.432;2022-07-29T05:36:44;6.32;;;3.00;;
13171;SDS011;6651;53.200;10.432;2022-07-29T05:39:10;7.03;;;3.33;;
13171;SDS011;6651;53.200;10.432;2022-07-29T05:41:37;8.10;;;3.10;;
13171;SDS011;6651;53.200;10.432;2022-07-29T05:44:03;7.47;;;3.00;;
13171;SDS011;6651;53.200;10.432;2022-07-29T05:46:29;5.63;;;2.78;;
13171;SDS011;6651;53.200;10.432;2022-07-29T05:48:55;5.88;;;2.83;;
13171;SDS011;6651;53.200;10.432;2022-07-29T05:51:21;7.43;;;2.97;;
13171;SDS011;6651;53.200;10.432;2022-07-29T05:53:47;4.68;;;2.60;;
13171;SDS011;6651;53.200;10.432;2022-07-29T05:56:13;6.65;;;2.80;;
13171;SDS011;6651;53.200;10.432;2022-07-29T05:58:38;4.18;;;2.67;;
13171;SDS011;6651;53.200;10.432;2022-07-29T06:01:04;6.47;;;2.53;;
13171;SDS011;6651;53.200;10.432;2022-07-29T06:03:29;5.93;;;3.00;;
13171;SDS011;6651;53.200;10.432;2022-07-29T06:05:55;6.60;;;2.70;;
13171;SDS011;6651;53.200;10.432;2022-07-29T06:08:21;7.50;;;2.70;;
13171;SDS011;6651;53.200;10.432;2022-07-29T06:10:46;4.80;;;2.63;;
13171;SDS011;6651;53.200;10.432;2022-07-29T06:13:12;5.78;;;2.80;;
13171;SDS011;6651;53.200;10.432;2022-07-29T06:15:38;4.32;;;2.50;;
13171;SDS011;6651;53.200;10.432;2022-07-29T06:18:03;3.33;;;2.45;;
13171;SDS011;6651;53.200;10.432;2022-07-29T06:20:32;4.32;;;2.50;;
13171;SDS011;6651;53.200;10.432;2022-07-29T06:22:58;4.85;;;2.58;;
13171;SDS011;6651;53.200;10.432;2022-07-29T06:25:24;5.38;;;2.50;;
13171;SDS011;6651;53.200;10.432;2022-07-29T06:27:49;4.70;;;2.55;;
13171;SDS011;6651;53.200;10.432;2022-07-29T06:30:15;5.55;;;2.60;;
13171;SDS011;6651;53.200;10.432;2022-07-29T06:32:41;6.03;;;2.70;;
13171;SDS011;6651;53.200;10.432;2022-07-29T06:35:06;5.38;;;2.30;;
13171;SDS011;6651;53.200;10.432;2022-07-29T06:37:32;4.03;;;2.47;;
13171;SDS011;6651;53.200;10.432;2022-07-29T06:39:58;5.45;;;2.92;;
13171;SDS011;6651;53.200;10.432;2022-07-29T06:42:43;5.45;;;2.88;;
13171;SDS011;6651;53.200;10.432;2022-07-29T06:45:09;5.40;;;3.08;;
13171;SDS011;6651;53.200;10.432;2022-07-29T06:47:35;8.00;;;2.92;;
13171;SDS011;6651;53.200;10.432;2022-07-29T06:50:01;5.22;;;2.63;;
13171;SDS011;6651;53.200;10.432;2022-07-29T06:52:27;6.25;;;2.90;;
13171;SDS011;6651;53.200;10.432;2022-07-29T06:54:53;6.25;;;2.55;;
13171;SDS011;6651;53.200;10.432;2022-07-29T06:57:19;3.67;;;2.40;;
13171;SDS011;6651;53.200;10.432;2022-07-29T06:59:46;4.97;;;2.80;;
13171;SDS011;6651;53.200;10.432;2022-07-29T07:02:12;5.47;;;2.40;;
13171;SDS011;6651;53.200;10.432;2022-07-29T07:04:37;5.97;;;2.95;;
13171;SDS011;6651;53.200;10.432;2022-07-29T07:07:03;4.47;;;2.58;;
13171;SDS011;6651;53.200;10.432;2022-07-29T07:09:29;6.03;;;2.63;;
13171;SDS011;6651;53.200;10.432;2022-07-29T07:11:55;3.80;;;2.50;;
13171;SDS011;6651;53.200;10.432;2022-07-29T07:14:20;5.70;;;2.30;;
13171;SDS011;6651;53.200;10.432;2022-07-29T07:16:46;6.85;;;2.95;;
13171;SDS011;6651;53.200;10.432;2022-07-29T07:19:11;3.78;;;2.55;;
13171;SDS011;6651;53.200;10.432;2022-07-29T07:21:37;5.07;;;2.50;;
13171;SDS011;6651;53.200;10.432;2022-07-29T07:24:03;6.13;;;2.70;;
13171;SDS011;6651;53.200;10.432;2022-07-29T07:26:29;3.33;;;2.55;;
13171;SDS011;6651;53.200;10.432;2022-07-29T07:28:54;4.32;;;2.35;;
13171;SDS011;6651;53.200;10.432;2022-07-29T07:31:21;7.22;;;2.63;;
13171;SDS011;6651;53.200;10.432;2022-07-29T07:33:47;3.83;;;2.40;;
13171;SDS011;6651;53.200;10.432;2022-07-29T07:36:13;6.25;;;2.60;;
13171;SDS011;6651;53.200;10.432;2022-07-29T07:38:38;7.78;;;2.85;;
13171;SDS011;6651;53.200;10.432;2022-07-29T07:41:04;4.55;;;2.50;;
13171;SDS011;6651;53.200;10.432;2022-07-29T07:43:30;4.15;;;2.40;;
13171;SDS011;6651;53.200;10.432;2022-07-29T07:45:57;3.67;;;2.53;;
13171;SDS011;6651;53.200;10.432;2022-07-29T07:48:23;5.28;;;2.70;;
13171;SDS011;6651;53.200;10.432;2022-07-29T07:50:48;6.35;;;2.60;;
13171;SDS011;6651;53.200;10.432;2022-07-29T07:53:15;3.92;;;2.45;;
13171;SDS011;6651;53.200;10.432;2022-07-29T07:55:41;4.68;;;2.22;;
13171;SDS011;6651;53.200;10.432;2022-07-29T07:58:07;5.28;;;2.50;;
13171;SDS011;6651;53.200;10.432;2022-07-29T08:00:34;7.38;;;2.38;;
13171;SDS011;6651;53.200;10.432;2022-07-29T08:02:59;4.97;;;2.50;;
13171;SDS011;6651;53.200;10.432;2022-07-29T08:05:25;6.28;;;2.55;;
13171;SDS011;6651;53.200;10.432;2022-07-29T08:07:50;7.75;;;2.40;;
13171;SDS011;6651;53.200;10.432;2022-07-29T08:10:17;4.63;;;2.45;;
13171;SDS011;6651;53.200;10.432;2022-07-29T08:13:07;4.68;;;2.10;;
13171;SDS011;6651;53.200;10.432;2022-07-29T08:15:34;7.63;;;2.80;;
13171;SDS011;6651;53.200;10.432;2022-07-29T08:18:00;6.32;;;2.30;;
13171;SDS011;6651;53.200;10.432;2022-07-29T08:20:26;6.40;;;2.30;;
13171;SDS011;6651;53.200;10.432;2022-07-29T08:22:52;5.38;;;2.28;;
13171;SDS011;6651;53.200;10.432;2022-07-29T08:25:18;6.57;;;2.55;;
13171;SDS011;6651;53.200;10.432;2022-07-29T08:27:46;5.15;;;2.30;;
13171;SDS011;6651;53.200;10.432;2022-07-29T08:30:12;8.02;;;2.25;;
13171;SDS011;6651;53.200;10.432;2022-07-29T08:32:37;7.40;;;2.38;;
13171;SDS011;6651;53.200;10.432;2022-07-29T08:35:03;6.57;;;2.05;;
13171;SDS011;6651;53.200;10.432;2022-07-29T08:37:29;5.95;;;2.30;;
13171;SDS011;6651;53.200;10.432;2022-07-29T08:39:55;5.03;;;2.28;;
13171;SDS011;6651;53.200;10.432;2022-07-29T08:42:20;7.97;;;2.53;;
13171;SDS011;6651;53.200;10.432;2022-07-29T08:44:46;8.23;;;2.50;;
13171;SDS011;6651;53.200;10.432;2022-07-29T08:47:16;5.75;;;2.30;;
13171;SDS011;6651;53.200;10.432;2022-07-29T08:49:42;4.38;;;2.30;;
13171;SDS011;6651;53.200;10.432;2022-07-29T08:52:10;5.15;;;2.40;;
13171;SDS011;6651;53.200;10.432;2022-07-29T08:54:36;4.85;;;2.20;;
13171;SDS011;6651;53.200;10.432;2022-07-29T08:57:04;7.78;;;2.38;;
13171;SDS011;6651;53.200;10.432;2022-07-29T08:59:30;6.03;;;2.38;;
13171;SDS011;6651;53.200;10.432;2022-07-29T09:01:59;6.70;;;2.60;;
13171;SDS011;6651;53.200;10.432;2022-07-29T09:04:29;4.57;;;2.20;;
13171;SDS011;6651;53.200;10.432;2022-07-29T09:06:57;6.95;;;2.15;;
13171;SDS011;6651;53.200;10.432;2022-07-29T09:09:28;6.72;;;2.45;;
13171;SDS011;6651;53.200;10.432;2022-07-29T09:11:54;6.15;;;2.33;;
13171;SDS011;6651;53.200;10.432;2022-07-29T09:14:20;5.13;;;2.38;;
13171;SDS011;6651;53.200;10.432;2022-07-29T09:16:46;5.03;;;2.15;;
13171;SDS011;6651;53.200;10.432;2022-07-29T09:21:55;6.05;;;2.08;;
13171;SDS011;6651;53.200;10.432;2022-07-29T09:24:22;5.93;;;2.30;;
13171;SDS011;6651;53.200;10.432;2022-07-29T09:26:48;3.75;;;2.00;;
13171;SDS011;6651;53.200;10.432;2022-07-29T09:29:18;3.53;;;2.00;;
13171;SDS011;6651;53.200;10.432;2022-07-29T09:31:45;4.95;;;2.17;;
13171;SDS011;6651;53.200;10.432;2022-07-29T09:34:12;4.28;;;2.10;;
13171;SDS011;6651;53.200;10.432;2022-07-29T09:36:40;8.52;;;2.42;;
13171;SDS011;6651;53.200;10.432;2022-07-29T09:39:07;5.68;;;2.30;;
13171;SDS011;6651;53.200;10.432;2022-07-29T09:44:15;4.13;;;1.90;;
13171;SDS011;6651;53.200;10.432;2022-07-29T09:47:03;7.03;;;2.08;;
13171;SDS011;6651;53.200;10.432;2022-07-29T09:49:31;4.13;;;1.80;;
13171;SDS011;6651;53.200;10.432;2022-07-29T09:52:08;5.88;;;2.50;;
13171;SDS011;6651;53.200;10.432;2022-07-29T09:54:35;6.45;;;2.00;;
13171;SDS011;6651;53.200;10.432;2022-07-29T09:57:04;5.00;;;2.13;;
13171;SDS011;6651;53.200;10.432;2022-07-29T09:59:33;5.75;;;2.20;;
13171;SDS011;6651;53.200;10.432;2022-07-29T10:01:59;5.00;;;1.88;;
13171;SDS011;6651;53.200;10.432;2022-07-29T10:04:38;5.45;;;2.00;;
13171;SDS011;6651;53.200;10.432;2022-07-29T10:07:05;5.68;;;2.05;;
13171;SDS011;6651;53.200;10.432;2022-07-29T10:09:31;4.70;;;2.17;;
13171;SDS011;6651;53.200;10.432;2022-07-29T10:14:39;4.00;;;1.75;;
13171;SDS011;6651;53.200;10.432;2022-07-29T10:17:06;4.60;;;2.10;;
13171;SDS011;6651;53.200;10.432;2022-07-29T10:19:33;5.05;;;2.38;;
13171;SDS011;6651;53.200;10.432;2022-07-29T10:22:00;5.78;;;2.15;;
13171;SDS011;6651;53.200;10.432;2022-07-29T10:24:28;6.50;;;2.20;;
13171;SDS011;6651;53.200;10.432;2022-07-29T10:26:55;8.73;;;2.17;;
13171;SDS011;6651;53.200;10.432;2022-07-29T10:29:22;6.68;;;2.10;;
13171;SDS011;6651;53.200;10.432;2022-07-29T10:31:49;4.88;;;2.00;;
13171;SDS011;6651;53.200;10.432;2022-07-29T10:43:19;4.22;;;1.83;;
13171;SDS011;6651;53.200;10.432;2022-07-29T10:45:49;3.17;;;2.00;;
13171;SDS011;6651;53.200;10.432;2022-07-29T10:48:19;4.22;;;1.80;;
13171;SDS011;6651;53.200;10.432;2022-07-29T10:50:59;5.63;;;2.40;;
13171;SDS011;6651;53.200;10.432;2022-07-29T11:01:44;2.20;;;1.70;;
13171;SDS011;6651;53.200;10.432;2022-07-29T11:04:11;3.38;;;1.90;;
13171;SDS011;6651;53.200;10.432;2022-07-29T11:09:27;4.32;;;1.75;;
13171;SDS011;6651;53.200;10.432;2022-07-29T11:11:55;4.70;;;2.00;;
13171;SDS011;6651;53.200;10.432;2022-07-29T11:17:24;4.22;;;1.90;;
13171;SDS011;6651;53.200;10.432;2022-07-29T11:19:49;5.40;;;2.00;;
13171;SDS011;6651;53.200;10.432;2022-07-29T11:22:32;4.57;;;2.28;;
13171;SDS011;6651;53.200;10.432;2022-07-29T11:25:12;4.80;;;2.13;;
13171;SDS011;6651;53.200;10.432;2022-07-29T11:27:42;6.10;;;2.00;;
13171;SDS011;6651;53.200;10.432;2022-07-29T11:30:09;4.28;;;2.00;;
13171;SDS011;6651;53.200;10.432;2022-07-29T11:32:37;3.05;;;1.83;;
13171;SDS011;6651;53.200;10.432;2022-07-29T11:35:14;4.88;;;1.98;;
13171;SDS011;6651;53.200;10.432;2022-07-29T11:43:56;4.63;;;2.10;;
13171;SDS011;6651;53.200;10.432;2022-07-29T11:49:24;3.67;;;2.13;;
13171;SDS011;6651;53.200;10.432;2022-07-29T11:51:55;5.05;;;2.00;;
13171;SDS011;6651;53.200;10.432;2022-07-29T11:54:32;7.72;;;2.20;;
13171;SDS011;6651;53.200;10.432;2022-07-29T11:56:59;4.82;;;1.98;;
13171;SDS011;6651;53.200;10.432;2022-07-29T11:59:25;3.60;;;1.90;;
13171;SDS011;6651;53.200;10.432;2022-07-29T12:01:55;5.82;;;2.00;;
13171;SDS011;6651;53.200;10.432;2022-07-29T12:04:22;8.10;;;2.08;;
13171;SDS011;6651;53.200;10.432;2022-07-29T12:06:55;5.68;;;2.10;;
13171;SDS011;6651;53.200;10.432;2022-07-29T12:09:22;3.67;;;1.98;;
13171;SDS011;6651;53.200;10.432;2022-07-29T12:11:48;3.45;;;1.90;;
13171;SDS011;6651;53.200;10.432;2022-07-29T12:14:31;6.18;;;2.35;;
13171;SDS011;6651;53.200;10.432;2022-07-29T12:16:57;6.35;;;2.15;;
13171;SDS011;6651;53.200;10.432;2022-07-29T12:19:24;4.63;;;2.10;;
13171;SDS011;6651;53.200;10.432;2022-07-29T12:21:53;4.53;;;2.10;;
13171;SDS011;6651;53.200;10.432;2022-07-29T12:24:19;4.75;;;2.00;;
13171;SDS011;6651;53.200;10.432;2022-07-29T12:26:52;4.88;;;2.22;;
13171;SDS011;6651;53.200;10.432;2022-07-29T12:29:18;4.25;;;2.00;;
13171;SDS011;6651;53.200;10.432;2022-07-29T12:31:44;3.40;;;1.88;;
13171;SDS011;6651;53.200;10.432;2022-07-29T12:34:15;5.72;;;2.20;;
13171;SDS011;6651;53.200;10.432;2022-07-29T12:36:41;5.70;;;2.42;;
13171;SDS011;6651;53.200;10.432;2022-07-29T12:39:08;5.13;;;2.08;;
13171;SDS011;6651;53.200;10.432;2022-07-29T12:41:35;3.90;;;2.00;;
13171;SDS011;6651;53.200;10.432;2022-07-29T12:44:00;3.15;;;2.00;;
13171;SDS011;6651;53.200;10.432;2022-07-29T12:46:26;3.67;;;1.98;;
13171;SDS011;6651;53.200;10.432;2022-07-29T12:48:53;5.20;;;2.10;;
13171;SDS011;6651;53.200;10.432;2022-07-29T12:51:29;5.30;;;2.10;;
13171;SDS011;6651;53.200;10.432;2022-07-29T12:54:09;6.63;;;2.40;;
13171;SDS011;6651;53.200;10.432;2022-07-29T12:56:36;2.78;;;1.80;;
13171;SDS011;6651;53.200;10.432;2022-07-29T13:01:38;5.25;;;2.20;;
13171;SDS011;6651;53.200;10.432;2022-07-29T13:04:04;7.40;;;2.20;;
13171;SDS011;6651;53.200;10.432;2022-07-29T13:09:03;7.50;;;2.35;;
13171;SDS011;6651;53.200;10.432;2022-07-29T13:11:31;5.47;;;2.10;;
13171;SDS011;6651;53.200;10.432;2022-07-29T13:13:57;4.80;;;1.98;;
13171;SDS011;6651;53.200;10.432;2022-07-29T13:16:23;4.80;;;1.90;;
13171;SDS011;6651;53.200;10.432;2022-07-29T13:19:02;5.50;;;2.25;;
13171;SDS011;6651;53.200;10.432;2022-07-29T13:21:28;4.40;;;1.75;;
13171;SDS011;6651;53.200;10.432;2022-07-29T13:23:54;5.00;;;1.90;;
13171;SDS011;6651;53.200;10.432;2022-07-29T13:26:20;4.72;;;1.90;;
13171;SDS011;6651;53.200;10.432;2022-07-29T13:28:46;4.32;;;2.00;;
13171;SDS011;6651;53.200;10.432;2022-07-29T13:31:12;3.42;;;2.10;;
13171;SDS011;6651;53.200;10.432;2022-07-29T13:33:38;5.05;;;2.22;;
13171;SDS011;6651;53.200;10.432;2022-07-29T13:36:04;4.25;;;2.10;;
13171;SDS011;6651;53.200;10.432;2022-07-29T13:38:30;4.90;;;2.33;;
13171;SDS011;6651;53.200;10.432;2022-07-29T13:40:56;5.07;;;2.22;;
13171;SDS011;6651;53.200;10.432;2022-07-29T13:43:22;3.88;;;2.30;;
13171;SDS011;6651;53.200;10.432;2022-07-29T13:45:48;5.35;;;2.42;;
13171;SDS011;6651;53.200;10.432;2022-07-29T13:48:14;7.70;;;2.20;;
13171;SDS011;6651;53.200;10.432;2022-07-29T13:50:40;4.68;;;2.55;;
13171;SDS011;6651;53.200;10.432;2022-07-29T13:53:06;5.97;;;2.15;;
13171;SDS011;6651;53.200;10.432;2022-07-29T13:55:32;4.85;;;2.30;;
13171;SDS011;6651;53.200;10.432;2022-07-29T13:57:59;5.75;;;2.10;;
13171;SDS011;6651;53.200;10.432;2022-07-29T14:00:25;5.93;;;2.22;;
13171;SDS011;6651;53.200;10.432;2022-07-29T14:02:51;5.70;;;2.35;;
13171;SDS011;6651;53.200;10.432;2022-07-29T14:05:17;5.05;;;2.33;;
13171;SDS011;6651;53.200;10.432;2022-07-29T14:07:43;4.72;;;2.35;;
13171;SDS011;6651;53.200;10.432;2022-07-29T14:10:09;6.32;;;2.40;;
13171;SDS011;6651;53.200;10.432;2022-07-29T14:12:36;4.28;;;2.50;;
13171;SDS011;6651;53.200;10.432;2022-07-29T14:15:02;4.40;;;2.10;;
13171;SDS011;6651;53.200;10.432;2022-07-29T14:17:28;5.78;;;2.55;;
13171;SDS011;6651;53.200;10.432;2022-07-29T14:19:54;5.10;;;2.35;;
13171;SDS011;6651;53.200;10.432;2022-07-29T14:22:20;4.63;;;2.05;;
13171;SDS011;6651;53.200;10.432;2022-07-29T14:24:46;4.07;;;2.05;;
13171;SDS011;6651;53.200;10.432;2022-07-29T14:27:12;6.05;;;2.35;;
13171;SDS011;6651;53.200;10.432;2022-07-29T14:29:38;5.47;;;2.08;;
13171;SDS011;6651;53.200;10.432;2022-07-29T14:32:05;3.58;;;2.13;;
13171;SDS011;6651;53.200;10.432;2022-07-29T14:34:31;3.80;;;2.20;;
13171;SDS011;6651;53.200;10.432;2022-07-29T14:36:57;3.08;;;2.00;;
13171;SDS011;6651;53.200;10.432;2022-07-29T14:39:23;5.90;;;2.25;;
13171;SDS011;6651;53.200;10.432;2022-07-29T14:41:49;5.47;;;2.40;;
13171;SDS011;6651;53.200;10.432;2022-07-29T14:44:16;4.78;;;2.00;;
13171;SDS011;6651;53.200;10.432;2022-07-29T14:46:43;7.05;;;2.42;;
13171;SDS011;6651;53.200;10.432;2022-07-29T14:49:09;3.65;;;2.15;;
13171;SDS011;6651;53.200;10.432;2022-07-29T14:51:35;4.18;;;2.20;;
13171;SDS011;6651;53.200;10.432;2022-07-29T14:54:01;4.97;;;2.50;;
13171;SDS011;6651;53.200;10.432;2022-07-29T14:56:27;5.63;;;2.50;;
13171;SDS011;6651;53.200;10.432;2022-07-29T14:58:55;3.42;;;2.00;;
13171;SDS011;6651;53.200;10.432;2022-07-29T15:01:21;5.70;;;2.50;;
13171;SDS011;6651;53.200;10.432;2022-07-29T15:03:47;3.83;;;2.30;;
13171;SDS011;6651;53.200;10.432;2022-07-29T15:06:13;4.53;;;2.53;;
13171;SDS011;6651;53.200;10.432;2022-07-29T15:08:39;4.38;;;2.40;;
13171;SDS011;6651;53.200;10.432;2022-07-29T15:11:05;3.13;;;2.20;;
13171;SDS011;6651;53.200;10.432;2022-07-29T15:13:31;5.60;;;2.33;;
13171;SDS011;6651;53.200;10.432;2022-07-29T15:15:58;3.33;;;2.30;;
13171;SDS011;6651;53.200;10.432;2022-07-29T15:18:24;4.70;;;1.98;;
13171;SDS011;6651;53.200;10.432;2022-07-29T15:20:50;5.22;;;2.20;;
13171;SDS011;6651;53.200;10.432;2022-07-29T15:23:16;4.13;;;2.30;;
13171;SDS011;6651;53.200;10.432;2022-07-29T15:25:42;3.75;;;2.05;;
13171;SDS011;6651;53.200;10.432;2022-07-29T15:28:08;5.47;;;2.35;;
13171;SDS011;6651;53.200;10.432;2022-07-29T15:30:34;4.63;;;2.10;;
13171;SDS011;6651;53.200;10.432;2022-07-29T15:33:05;2.75;;;2.00;;
13171;SDS011;6651;53.200;10.432;2022-07-29T15:35:31;6.03;;;2.38;;
13171;SDS011;6651;53.200;10.432;2022-07-29T15:37:58;4.85;;;2.30;;
13171;SDS011;6651;53.200;10.432;2022-07-29T15:40:24;4.32;;;2.33;;
13171;SDS011;6651;53.200;10.432;2022-07-29T15:42:50;3.00;;;2.10;;
13171;SDS011;6651;53.200;10.432;2022-07-29T15:45:16;4.88;;;2.20;;
13171;SDS011;6651;53.200;10.432;2022-07-29T15:47:42;3.05;;;2.10;;
13171;SDS011;6651;53.200;10.432;2022-07-29T15:50:08;5.68;;;2.30;;
13171;SDS011;6651;53.200;10.432;2022-07-29T15:52:39;3.50;;;2.13;;
13171;SDS011;6651;53.200;10.432;2022-07-29T15:55:05;5.28;;;2.20;;
13171;SDS011;6651;53.200;10.432;2022-07-29T15:57:31;4.63;;;2.30;;